Time;durP1;ratioP1;P1;durP2;ratioP2;P2;SDS_P1;SDS_P2;PMS_P1;PMS_P2;Temp;Humidity;BMP_temperature;BMP_pressure;BME280_temperature;BME280_humidity;BME280_pressure;Samples;Min_cycle;Max_cycle;Signal;HPM_P1;HPM_P2
2023/08/14 00:00:55;;;;;;;5.60;3.60;;;;;;;22.02;67.20;97014.52;108866;1275;25401;-78
2023/08/14 00:03:41;;;;;;;7.50;3.60;;;;;;;22.01;66.99;97017.65;108862;1275;22525;-78
2023/08/14 00:06:12;;;;;;;5.90;3.40;;;;;;;21.98;67.10;97017.19;108796;1272;22532;-77
2023/08/14 00:08:43;;;;;;;3.90;3.60;;;;;;;21.94;66.89;97018.61;108867;1270;22543;-78
2023/08/14 00:11:16;;;;;;;3.80;3.40;;;;;;;21.92;66.98;97017.46;108846;1275;23034;-78
2023/08/14 00:13:58;;;;;;;7.80;4.20;;;;;;;21.91;66.75;97014.84;108839;1275;22629;-77
2023/08/14 00:16:29;;;;;;;3.90;3.50;;;;;;;21.91;66.79;97015.29;108876;1270;22533;-77
2023/08/14 00:19:00;;;;;;;7.20;4.00;;;;;;;21.88;66.67;97020.23;108881;1276;22536;-78
2023/08/14 00:21:31;;;;;;;4.30;3.30;;;;;;;21.88;66.61;97023.47;108859;1271;22523;-78
2023/08/14 00:24:02;;;;;;;3.80;2.90;;;;;;;21.91;66.32;97021.98;108853;1270;22569;-78
2023/08/14 00:26:33;;;;;;;4.30;3.60;;;;;;;21.92;66.35;97025.48;108823;1275;22526;-77
2023/08/14 00:29:05;;;;;;;3.80;3.50;;;;;;;21.91;66.09;97023.16;108865;1275;22562;-77
2023/08/14 00:31:36;;;;;;;4.10;3.50;;;;;;;21.88;66.10;97023.63;108815;1275;22525;-77
2023/08/14 00:34:07;;;;;;;3.90;3.50;;;;;;;21.85;66.05;97024.00;108917;1275;23248;-77
2023/08/14 00:36:38;;;;;;;3.60;3.30;;;;;;;21.82;66.01;97022.80;108858;1275;22532;-77
2023/08/14 00:39:09;;;;;;;6.90;3.60;;;;;;;21.77;65.93;97027.59;108980;1270;22529;-77
2023/08/14 00:41:41;;;;;;;6.40;3.60;;;;;;;21.73;65.87;97025.95;108954;1275;23089;-77
2023/08/14 00:44:12;;;;;;;4.40;4.00;;;;;;;21.71;65.93;97030.43;108964;1275;22540;-77
2023/08/14 00:46:43;;;;;;;4.50;3.20;;;;;;;21.68;65.88;97033.11;108990;1269;24215;-77
2023/08/14 00:49:14;;;;;;;4.40;3.50;;;;;;;21.66;65.99;97033.52;108938;1275;22581;-77
2023/08/14 00:51:46;;;;;;;5.00;3.40;;;;;;;21.61;65.88;97033.98;108954;1275;24245;-77
2023/08/14 00:54:17;;;;;;;4.90;3.70;;;;;;;21.57;65.99;97043.41;108954;1275;22522;-77
2023/08/14 00:56:48;;;;;;;4.40;3.30;;;;;;;21.53;66.12;97045.08;108877;1269;22538;-77
2023/08/14 00:59:20;;;;;;;4.50;3.00;;;;;;;21.50;66.06;97044.27;108838;1276;24512;-77
2023/08/14 01:01:51;;;;;;;5.30;3.60;;;;;;;21.50;65.95;97046.11;108792;1276;22545;-77
2023/08/14 01:04:22;;;;;;;7.80;3.10;;;;;;;21.51;66.03;97046.38;108816;1270;22598;-77
2023/08/14 01:06:53;;;;;;;4.00;3.50;;;;;;;21.53;65.96;97045.84;108845;1276;22529;-77
2023/08/14 01:09:26;;;;;;;3.20;2.90;;;;;;;21.54;65.78;97047.43;108923;1273;22557;-77
2023/08/14 01:12:04;;;;;;;4.40;3.60;;;;;;;21.52;65.78;97048.89;108833;1269;22527;-77
2023/08/14 01:14:37;;;;;;;4.50;3.40;;;;;;;21.50;65.72;97049.74;108830;1270;22468;-77
2023/08/14 01:17:15;;;;;;;4.20;3.60;;;;;;;21.47;65.83;97048.98;108848;1276;25479;-77
2023/08/14 01:19:51;;;;;;;3.40;2.90;;;;;;;21.45;65.85;97046.84;108948;1270;22581;-77
2023/08/14 01:22:40;;;;;;;4.60;3.80;;;;;;;21.43;65.98;97046.83;108891;1276;22703;-77
2023/08/14 01:25:30;;;;;;;4.00;3.60;;;;;;;21.40;65.97;97050.76;108910;1269;22609;-77
2023/08/14 01:28:06;;;;;;;6.20;3.60;;;;;;;21.37;66.08;97051.95;108929;1276;22589;-77
2023/08/14 01:30:38;;;;;;;5.20;3.30;;;;;;;21.38;66.17;97053.13;108911;1276;22532;-77
2023/08/14 01:33:09;;;;;;;4.10;3.60;;;;;;;21.41;66.18;97054.65;108843;1273;22534;-77
2023/08/14 01:36:00;;;;;;;4.90;3.60;;;;;;;21.44;66.14;97059.98;108849;1276;22524;-77
2023/08/14 01:38:40;;;;;;;4.70;3.50;;;;;;;21.41;66.12;97064.27;108964;1269;23169;-77
2023/08/14 01:41:20;;;;;;;5.30;3.30;;;;;;;21.39;66.18;97068.48;108850;1269;22531;-77
2023/08/14 01:43:59;;;;;;;4.10;3.70;;;;;;;21.39;66.23;97069.64;108801;1270;26583;-77
2023/08/14 01:46:30;;;;;;;;;;;;;;;21.40;66.28;97070.24;108878;1276;23186;-77
2023/08/14 01:49:02;;;;;;;3.80;3.40;;;;;;;21.36;66.31;97071.35;108807;1276;22675;-77
2023/08/14 01:51:35;;;;;;;3.60;3.10;;;;;;;21.34;66.27;97071.77;108849;1270;25369;-77
2023/08/14 01:54:07;;;;;;;4.50;3.30;;;;;;;21.32;66.32;97071.83;108446;1276;26452;-77
2023/08/14 01:56:38;;;;;;;3.50;3.10;;;;;;;21.30;66.26;97075.48;108510;1275;24222;-77
2023/08/14 01:59:11;;;;;;;4.00;3.30;;;;;;;21.28;66.24;97070.27;108559;1272;24279;-77
2023/08/14 02:01:44;;;;;;;3.80;3.00;;;;;;;21.26;66.35;97067.98;108581;1275;22577;-77
2023/08/14 02:04:15;;;;;;;3.60;3.30;;;;;;;21.25;66.38;97069.36;108596;1255;25539;-77
2023/08/14 02:06:46;;;;;;;4.10;3.40;;;;;;;21.23;66.35;97068.59;109007;1275;24193;-77
2023/08/14 02:09:17;;;;;;;4.40;3.70;;;;;;;21.21;66.43;97069.91;108935;1274;22618;-77
2023/08/14 02:11:51;;;;;;;3.90;3.30;;;;;;;21.21;66.44;97066.52;108964;1275;22543;-77
2023/08/14 02:14:23;;;;;;;4.00;3.60;;;;;;;21.21;66.56;97066.68;108985;1272;22693;-77
2023/08/14 02:16:57;;;;;;;6.10;3.90;;;;;;;21.21;66.47;97072.14;108832;1276;23562;-77
2023/08/14 02:19:30;;;;;;;4.20;3.50;;;;;;;21.20;66.54;97070.98;108863;1276;22690;-77
2023/08/14 02:22:02;;;;;;;4.40;3.40;;;;;;;21.17;66.58;97073.95;108852;1270;24450;-77
2023/08/14 02:24:33;;;;;;;3.90;3.50;;;;;;;21.15;66.73;97077.56;108873;1276;22532;-77
2023/08/14 02:27:04;;;;;;;4.30;3.50;;;;;;;21.13;66.66;97077.07;108817;1276;22569;-75
2023/08/14 02:29:37;;;;;;;4.10;3.40;;;;;;;21.13;66.74;97074.75;108456;1276;22514;-77
2023/08/14 02:32:11;;;;;;;3.80;3.20;;;;;;;21.14;66.58;97077.98;108473;1253;22517;-77
2023/08/14 02:34:50;;;;;;;3.60;3.20;;;;;;;21.16;66.54;97077.83;108470;1276;22527;-76
2023/08/14 02:37:24;;;;;;;5.00;3.40;;;;;;;21.18;66.43;97080.98;108483;1276;22620;-77
2023/08/14 02:39:57;;;;;;;3.50;3.20;;;;;;;21.20;66.36;97073.71;108478;1276;22520;-76
2023/08/14 02:42:28;;;;;;;4.10;3.40;;;;;;;21.21;66.23;97072.14;108449;1270;22524;-77
2023/08/14 02:45:01;;;;;;;3.40;3.10;;;;;;;21.21;66.13;97075.38;108415;1272;22630;-77
2023/08/14 02:47:33;;;;;;;5.40;3.10;;;;;;;21.20;66.17;97066.41;108443;1276;22524;-76
2023/08/14 02:50:08;;;;;;;3.80;3.40;;;;;;;21.19;66.07;97066.30;108470;1276;24339;-76
2023/08/14 02:52:39;;;;;;;3.40;3.10;;;;;;;21.20;66.02;97067.79;108424;1269;23188;-77
2023/08/14 02:55:11;;;;;;;4.10;3.00;;;;;;;21.17;66.05;97070.10;108514;1271;25291;-76
2023/08/14 02:57:44;;;;;;;3.90;3.30;;;;;;;21.15;65.99;97070.04;108580;1276;22608;-77
2023/08/14 03:00:16;;;;;;;4.50;3.20;;;;;;;21.14;66.03;97070.85;108412;1276;22530;-76
2023/08/14 03:02:50;;;;;;;4.00;3.40;;;;;;;21.13;66.06;97067.73;108449;1276;22525;-76
2023/08/14 03:05:23;;;;;;;5.20;3.80;;;;;;;21.12;66.08;97071.24;108469;1275;27245;-76
2023/08/14 03:07:54;;;;;;;5.00;3.90;;;;;;;21.14;65.93;97069.84;108558;1275;22530;-77
2023/08/14 03:10:25;;;;;;;3.80;3.10;;;;;;;21.15;65.87;97071.96;108614;1275;22528;-77
2023/08/14 03:13:00;;;;;;;3.70;3.30;;;;;;;21.19;65.77;97076.70;108607;1268;22525;-77
2023/08/14 03:15:31;;;;;;;7.20;3.20;;;;;;;21.22;65.58;97080.97;108579;1269;22556;-77
2023/08/14 03:18:01;;;;;;;4.90;3.10;;;;;;;21.25;65.40;97077.23;108602;1275;22538;-77
2023/08/14 03:20:33;;;;;;;4.50;3.20;;;;;;;21.25;65.19;97082.88;108610;1275;22654;-77
2023/08/14 03:23:04;;;;;;;3.70;3.00;;;;;;;21.24;65.21;97080.32;108597;1275;22525;-76
2023/08/14 03:25:35;;;;;;;3.20;2.90;;;;;;;21.23;65.02;97080.36;108579;1275;23931;-77
2023/08/14 03:28:08;;;;;;;4.20;2.90;;;;;;;21.20;65.04;97086.91;108653;1275;22524;-77
2023/08/14 03:30:44;;;;;;;5.10;3.50;;;;;;;21.18;64.97;97092.85;108909;1275;22535;-77
2023/08/14 03:33:15;;;;;;;5.20;3.70;;;;;;;21.20;64.99;97095.61;108914;1275;25416;-77
2023/08/14 03:35:49;;;;;;;3.50;3.20;;;;;;;21.20;64.90;97101.45;108853;1275;22535;-77
2023/08/14 03:38:20;;;;;;;4.10;3.50;;;;;;;21.16;64.83;97100.95;108897;1275;22539;-77
2023/08/14 03:40:53;;;;;;;4.70;3.70;;;;;;;21.14;64.85;97101.98;108937;1275;22535;-77
2023/08/14 03:43:24;;;;;;;3.90;3.10;;;;;;;21.13;64.76;97104.48;108913;1268;22546;-77
2023/08/14 03:45:58;;;;;;;6.50;3.20;;;;;;;21.12;64.80;97104.52;108928;1275;25396;-77
2023/08/14 03:48:29;;;;;;;4.90;3.50;;;;;;;21.09;64.85;97107.26;108963;1273;22633;-77
2023/08/14 03:51:00;;;;;;;5.60;3.50;;;;;;;21.04;65.06;97097.77;108905;1275;22517;-76
2023/08/14 03:53:32;;;;;;;4.00;3.50;;;;;;;21.01;65.24;97093.85;108610;1275;25258;-76
2023/08/14 03:56:03;;;;;;;4.50;3.40;;;;;;;20.98;65.32;97090.34;108556;1268;25406;-77
2023/08/14 03:58:35;;;;;;;4.70;3.60;;;;;;;20.94;65.66;97094.10;108626;1275;22528;-77
2023/08/14 04:01:09;;;;;;;3.90;3.50;;;;;;;20.90;65.71;97092.66;108685;1275;22512;-76
2023/08/14 04:03:42;;;;;;;5.30;3.70;;;;;;;20.84;66.08;97091.38;108579;1275;25238;-76
2023/08/14 04:06:16;;;;;;;4.80;3.90;;;;;;;20.80;66.25;97094.56;108579;1275;24407;-77
2023/08/14 04:08:46;;;;;;;4.70;3.70;;;;;;;20.82;66.37;97097.69;108639;1269;26615;-77
2023/08/14 04:11:18;;;;;;;3.70;3.30;;;;;;;20.83;66.34;97100.14;108574;1275;22514;-77
2023/08/14 04:13:49;;;;;;;4.10;3.70;;;;;;;20.86;66.40;97101.40;108881;1269;22567;-77
2023/08/14 04:16:20;;;;;;;3.80;3.40;;;;;;;20.88;66.45;97103.63;108918;1275;22519;-77
2023/08/14 04:18:51;;;;;;;3.90;3.30;;;;;;;20.88;66.42;97111.27;108964;1269;25438;-77
2023/08/14 04:21:22;;;;;;;3.80;3.40;;;;;;;20.91;66.29;97109.02;108937;1275;23004;-77
2023/08/14 04:23:53;;;;;;;4.60;3.60;;;;;;;20.95;66.19;97112.77;108903;1275;23748;-77
2023/08/14 04:26:24;;;;;;;4.80;3.70;;;;;;;20.97;66.37;97114.53;108948;1275;22618;-77
2023/08/14 04:28:55;;;;;;;4.90;3.80;;;;;;;20.98;66.32;97111.99;108933;1275;22543;-77
2023/08/14 04:31:26;;;;;;;5.50;3.20;;;;;;;20.99;66.17;97114.55;108591;1275;22570;-77
2023/08/14 04:33:57;;;;;;;6.70;3.70;;;;;;;21.00;66.21;97125.00;108540;1275;24184;-77
2023/08/14 04:36:28;;;;;;;4.40;3.30;;;;;;;21.02;66.07;97132.68;108574;1275;22567;-76
2023/08/14 04:39:00;;;;;;;3.90;3.50;;;;;;;21.05;65.96;97130.30;108593;1275;22530;-76
2023/08/14 04:41:32;;;;;;;3.60;3.20;;;;;;;21.06;65.92;97124.23;108591;1268;22516;-76
2023/08/14 04:44:03;;;;;;;6.10;3.30;;;;;;;21.05;65.77;97125.39;108570;1272;22647;-76
2023/08/14 04:46:36;;;;;;;3.50;3.20;;;;;;;21.04;65.86;97126.11;108518;1269;22518;-76
2023/08/14 04:49:07;;;;;;;4.20;3.50;;;;;;;21.04;66.03;97128.52;108568;1275;22542;-76
2023/08/14 04:51:38;;;;;;;5.60;3.50;;;;;;;21.06;65.90;97129.27;108599;1268;22518;-76
2023/08/14 04:54:10;;;;;;;3.30;3.10;;;;;;;21.08;65.80;97130.11;108591;1275;22557;-76
2023/08/14 04:56:41;;;;;;;4.10;3.40;;;;;;;21.11;65.78;97130.65;108594;1275;22583;-76
2023/08/14 04:59:12;;;;;;;4.80;3.60;;;;;;;21.19;65.90;97135.95;108559;1275;22890;-75
2023/08/14 05:01:43;;;;;;;3.60;3.20;;;;;;;21.25;65.59;97134.61;108614;1275;22542;-76
2023/08/14 05:04:15;;;;;;;4.80;3.30;;;;;;;21.34;65.61;97130.15;108621;1275;22560;-76
2023/08/14 05:06:47;;;;;;;4.60;3.50;;;;;;;21.50;65.49;97130.70;108563;1269;22529;-76
2023/08/14 05:09:18;;;;;;;4.20;3.50;;;;;;;21.91;65.76;97129.91;108595;1272;22539;-76
2023/08/14 05:11:50;;;;;;;5.40;3.30;;;;;;;22.36;65.40;97130.96;108551;1268;24268;-76
2023/08/14 05:14:21;;;;;;;4.60;3.10;;;;;;;22.84;64.77;97129.23;108470;1275;22521;-76
2023/08/14 05:16:52;;;;;;;5.40;2.90;;;;;;;23.39;64.18;97126.22;108531;1269;22550;-76
2023/08/14 05:19:24;;;;;;;6.10;3.50;;;;;;;23.51;62.91;97126.37;108554;1275;25331;-76
2023/08/14 05:21:55;;;;;;;5.60;3.50;;;;;;;23.61;63.09;97121.08;108622;1275;26458;-76
2023/08/14 05:24:27;;;;;;;4.30;3.50;;;;;;;23.63;62.07;97123.96;108664;1272;22550;-76
2023/08/14 05:27:00;;;;;;;3.40;3.10;;;;;;;23.76;62.98;97124.20;108630;1275;22541;-76
2023/08/14 05:29:32;;;;;;;5.50;3.30;;;;;;;24.46;63.05;97120.66;108662;1275;24292;-76
2023/08/14 05:32:04;;;;;;;6.70;3.20;;;;;;;25.46;62.29;97119.85;108684;1275;22533;-74
2023/08/14 05:34:36;;;;;;;5.40;3.20;;;;;;;26.24;60.73;97122.30;108704;1272;25272;-75
2023/08/14 05:37:07;;;;;;;3.60;3.20;;;;;;;26.26;58.50;97123.52;108549;1275;24239;-75
2023/08/14 05:39:38;;;;;;;3.10;2.70;;;;;;;25.53;57.47;97125.17;108497;1268;22542;-75
2023/08/14 05:42:10;;;;;;;4.60;3.40;;;;;;;24.77;57.59;97131.91;108500;1268;25323;-75
2023/08/14 05:44:41;;;;;;;4.10;3.40;;;;;;;24.13;57.82;97132.33;108531;1268;22520;-75
2023/08/14 05:47:12;;;;;;;5.10;3.30;;;;;;;23.65;58.38;97140.27;108593;1269;22689;-75
2023/08/14 05:49:43;;;;;;;5.80;3.20;;;;;;;23.41;58.95;97139.73;108529;1272;22639;-75
2023/08/14 05:52:15;;;;;;;5.50;3.30;;;;;;;23.31;59.66;97137.52;108583;1275;22523;-75
2023/08/14 05:54:46;;;;;;;4.00;3.40;;;;;;;23.15;59.71;97136.80;108555;1275;22965;-75
2023/08/14 05:57:17;;;;;;;5.80;3.50;;;;;;;22.93;60.12;97135.54;108586;1257;22516;-75
2023/08/14 05:59:48;;;;;;;4.60;3.70;;;;;;;22.87;60.88;97132.45;108565;1268;22521;-75
2023/08/14 06:02:19;;;;;;;4.70;3.20;;;;;;;23.20;61.44;97129.61;108552;1275;25556;-75
2023/08/14 06:04:51;;;;;;;3.60;3.30;;;;;;;23.38;60.59;97134.16;108538;1275;23065;-75
2023/08/14 06:07:22;;;;;;;4.20;3.10;;;;;;;23.30;60.62;97136.52;108438;1276;22521;-75
2023/08/14 06:09:54;;;;;;;4.30;2.90;;;;;;;23.27;60.43;97135.97;108400;1276;22511;-75
2023/08/14 06:12:25;;;;;;;4.40;3.30;;;;;;;23.42;60.92;97136.66;108423;1276;26437;-75
2023/08/14 06:14:56;;;;;;;3.50;3.00;;;;;;;23.76;61.17;97138.42;108294;1271;22535;-75
2023/08/14 06:17:27;;;;;;;3.90;3.40;;;;;;;24.46;60.90;97140.48;108319;1276;22732;-74
2023/08/14 06:20:01;;;;;;;5.10;3.30;;;;;;;24.85;59.71;97145.48;108417;1276;23294;-75
2023/08/14 06:22:33;;;;;;;8.90;3.60;;;;;;;25.11;59.17;97146.14;108575;1276;22534;-74
2023/08/14 06:25:04;;;;;;;6.40;3.40;;;;;;;25.48;58.68;97145.40;108537;1265;22606;-74
2023/08/14 06:27:36;;;;;;;3.90;3.00;;;;;;;25.85;58.30;97149.46;108570;1276;22581;-74
2023/08/14 06:30:10;;;;;;;5.90;3.90;;;;;;;26.38;57.97;97142.08;108550;1276;23787;-77
2023/08/14 06:32:41;;;;;;;4.50;3.20;;;;;;;26.68;56.53;97147.30;108517;1272;22518;-77
2023/08/14 06:35:13;;;;;;;5.20;3.30;;;;;;;27.03;56.64;97145.45;108441;1271;22510;-77
2023/08/14 06:37:44;;;;;;;3.70;3.10;;;;;;;27.47;56.55;97150.11;108576;1267;22549;-77
2023/08/14 06:40:16;;;;;;;4.10;3.40;;;;;;;27.60;55.39;97152.17;108615;1268;22529;-77
2023/08/14 06:42:48;;;;;;;5.60;3.50;;;;;;;27.71;55.35;97152.60;108661;1268;22521;-77
2023/08/14 06:45:22;;;;;;;5.50;3.40;;;;;;;27.86;54.79;97151.01;108593;1274;25470;-76
2023/08/14 06:47:53;;;;;;;4.30;3.10;;;;;;;28.03;54.61;97155.73;108639;1267;22514;-75
2023/08/14 06:50:25;;;;;;;4.50;3.80;;;;;;;28.06;53.55;97157.00;108599;1272;23174;-77
2023/08/14 06:52:56;;;;;;;5.10;3.70;;;;;;;28.19;53.49;97155.99;108620;1267;22527;-77
2023/08/14 06:55:27;;;;;;;4.30;3.40;;;;;;;28.50;52.75;97155.57;108602;1268;24433;-75
2023/08/14 06:57:59;;;;;;;3.90;3.40;;;;;;;28.48;52.34;97160.86;108604;1268;22558;-76
2023/08/14 07:00:30;;;;;;;5.90;3.40;;;;;;;28.74;52.26;97156.14;108679;1274;22610;-76
2023/08/14 07:03:01;;;;;;;5.30;3.40;;;;;;;28.99;51.79;97159.86;108667;1274;22528;-75
2023/08/14 07:05:33;;;;;;;3.70;3.30;;;;;;;29.03;51.41;97159.56;108604;1274;23435;-76
2023/08/14 07:08:05;;;;;;;5.00;3.20;;;;;;;29.13;51.35;97157.33;108574;1274;22624;-76
2023/08/14 07:10:36;;;;;;;3.80;3.40;;;;;;;29.29;51.00;97158.91;108636;1269;23408;-76
2023/08/14 07:13:08;;;;;;;3.40;3.10;;;;;;;29.31;50.52;97158.53;108613;1274;22694;-76
2023/08/14 07:15:39;;;;;;;4.50;3.00;;;;;;;29.29;50.28;97167.04;108617;1269;22514;-76
2023/08/14 07:18:11;;;;;;;4.10;2.80;;;;;;;29.24;50.05;97171.54;108680;1272;22537;-76
2023/08/14 07:20:43;;;;;;;4.20;3.00;;;;;;;29.34;49.84;97177.58;108639;1274;22544;-76
2023/08/14 07:23:14;;;;;;;3.30;2.90;;;;;;;29.33;49.59;97176.39;108647;1267;22530;-77
2023/08/14 07:25:46;;;;;;;4.20;2.80;;;;;;;29.26;49.21;97178.48;108661;1274;25250;-77
2023/08/14 07:28:18;;;;;;;3.50;3.00;;;;;;;29.48;49.44;97177.23;108641;1274;22545;-77
2023/08/14 07:30:49;;;;;;;3.40;3.00;;;;;;;29.71;49.40;97178.05;108594;1274;22518;-77
2023/08/14 07:33:21;;;;;;;4.30;3.30;;;;;;;29.55;48.67;97176.93;108633;1267;22529;-77
2023/08/14 07:35:54;;;;;;;3.70;2.80;;;;;;;29.46;49.13;97176.60;108627;1267;22539;-77
2023/08/14 07:38:26;;;;;;;4.20;3.20;;;;;;;29.59;48.66;97177.88;108678;1274;25390;-77
2023/08/14 07:40:58;;;;;;;7.00;2.90;;;;;;;29.74;48.55;97175.00;108643;1269;22514;-77
2023/08/14 07:43:29;;;;;;;5.30;3.20;;;;;;;29.80;48.08;97174.36;108554;1268;22538;-79
2023/08/14 07:46:00;;;;;;;3.60;2.90;;;;;;;29.91;48.11;97174.38;108439;1268;25345;-77
2023/08/14 07:48:32;;;;;;;5.10;2.80;;;;;;;30.03;48.08;97172.50;108500;1269;22513;-77
2023/08/14 07:51:03;;;;;;;4.90;2.50;;;;;;;30.11;47.79;97173.67;108658;1274;22524;-78
2023/08/14 07:53:34;;;;;;;6.70;2.60;;;;;;;30.16;47.51;97174.61;108618;1274;22660;-78
2023/08/14 07:56:06;;;;;;;2.60;2.40;;;;;;;30.23;47.36;97175.08;108609;1267;24433;-79
2023/08/14 07:58:39;;;;;;;2.90;2.60;;;;;;;30.23;46.93;97174.13;108659;1274;22525;-79
2023/08/14 08:01:10;;;;;;;4.40;2.60;;;;;;;30.25;46.53;97174.91;108656;1268;25406;-79
2023/08/14 08:03:42;;;;;;;4.60;2.70;;;;;;;30.27;46.43;97172.73;108614;1274;22544;-79
2023/08/14 08:06:13;;;;;;;4.20;2.50;;;;;;;30.35;46.38;97174.34;108603;1274;23318;-78
2023/08/14 08:08:44;;;;;;;4.00;2.80;;;;;;;30.36;46.08;97168.55;108617;1274;22641;-79
2023/08/14 08:11:15;;;;;;;4.10;2.70;;;;;;;30.48;46.08;97170.56;108591;1272;22531;-78
2023/08/14 08:13:46;;;;;;;4.30;2.30;;;;;;;30.51;45.53;97166.16;108647;1274;22580;-79
2023/08/14 08:16:17;;;;;;;5.70;2.70;;;;;;;30.34;45.43;97165.68;108611;1269;26351;-80
2023/08/14 08:18:49;;;;;;;5.00;2.40;;;;;;;29.93;45.10;97166.88;108610;1272;22517;-79
2023/08/14 08:21:20;;;;;;;2.90;2.40;;;;;;;29.76;45.53;97166.48;108623;1274;22535;-79
2023/08/14 08:23:51;;;;;;;3.30;2.70;;;;;;;29.60;45.42;97168.12;108661;1267;22504;-79
2023/08/14 08:26:23;;;;;;;5.80;2.30;;;;;;;29.43;45.38;97168.86;108597;1268;25382;-79
2023/08/14 08:28:54;;;;;;;3.00;2.50;;;;;;;29.18;45.63;97167.24;108707;1267;22983;-78
2023/08/14 08:31:26;;;;;;;3.00;2.30;;;;;;;28.97;45.86;97169.05;108680;1267;22517;-78
2023/08/14 08:33:57;;;;;;;3.60;2.70;;;;;;;28.69;46.29;97168.45;108805;1267;26445;-78
2023/08/14 08:36:29;;;;;;;3.30;2.90;;;;;;;28.36;46.35;97170.23;108643;1267;22532;-78
2023/08/14 08:39:00;;;;;;;6.30;3.00;;;;;;;28.36;46.89;97173.03;108742;1272;22533;-78
2023/08/14 08:41:34;;;;;;;3.70;2.70;;;;;;;28.63;47.23;97171.22;108672;1274;22538;-78
2023/08/14 08:44:10;;;;;;;4.50;2.80;;;;;;;28.80;47.47;97173.02;108610;1274;25355;-77
2023/08/14 08:46:58;;;;;;;2.60;2.40;;;;;;;29.04;47.05;97174.06;108589;1274;23484;-78
2023/08/14 08:49:30;;;;;;;4.60;2.70;;;;;;;29.19;46.28;97175.29;108611;1274;22626;-78
2023/08/14 08:52:02;;;;;;;3.30;2.70;;;;;;;29.20;46.55;97179.42;108491;1268;180049;-77
2023/08/14 08:54:34;;;;;;;3.30;2.50;;;;;;;29.34;46.23;97178.75;108612;1272;24459;-78
2023/08/14 08:57:07;;;;;;;3.90;2.60;;;;;;;29.44;45.89;97173.46;108638;1274;22522;-78
2023/08/14 08:59:40;;;;;;;4.90;2.40;;;;;;;29.34;45.50;97177.42;108635;1274;22592;-78
2023/08/14 09:02:12;;;;;;;2.40;2.20;;;;;;;29.40;45.52;97174.46;108620;1274;22526;-78
2023/08/14 09:04:43;;;;;;;4.30;2.60;;;;;;;29.55;44.93;97175.92;108643;1274;24237;-78
2023/08/14 09:07:15;;;;;;;2.30;2.10;;;;;;;29.72;45.16;97174.84;108750;1274;23332;-78
2023/08/14 09:09:47;;;;;;;4.60;2.30;;;;;;;29.82;44.98;97170.55;108616;1274;22545;-78
2023/08/14 09:12:19;;;;;;;4.10;2.20;;;;;;;29.73;44.21;97172.57;108637;1274;24260;-78
2023/08/14 09:15:04;;;;;;;3.90;2.30;;;;;;;29.56;44.56;97173.58;108646;1271;23330;-76
2023/08/14 09:17:36;;;;;;;3.50;2.50;;;;;;;29.80;44.67;97173.20;108875;1267;22543;-79
2023/08/14 09:20:14;;;;;;;4.60;2.50;;;;;;;29.78;44.15;97170.70;108637;1266;25226;-79
2023/08/14 09:22:49;;;;;;;3.30;2.20;;;;;;;29.93;44.73;97168.12;108680;1268;25546;-79
2023/08/14 09:25:23;;;;;;;3.90;2.50;;;;;;;30.03;44.35;97163.37;108609;1267;22534;-79
2023/08/14 09:27:56;;;;;;;5.30;2.20;;;;;;;30.10;44.21;97161.41;108731;1268;22656;-79
2023/08/14 09:30:29;;;;;;;3.00;2.50;;;;;;;30.00;43.35;97161.95;108788;1274;22752;-78
2023/08/14 09:33:00;;;;;;;3.60;2.50;;;;;;;29.79;43.59;97165.48;108689;1274;22548;-78
2023/08/14 09:35:32;;;;;;;3.20;2.40;;;;;;;29.69;43.16;97162.89;108617;1270;22537;-79
2023/08/14 09:38:07;;;;;;;2.40;2.20;;;;;;;29.69;43.26;97163.73;108626;1267;22618;-78
2023/08/14 09:40:43;;;;;;;3.60;2.50;;;;;;;29.74;43.80;97158.05;108593;1269;22508;-78
2023/08/14 09:43:15;;;;;;;5.10;2.50;;;;;;;29.83;43.48;97156.10;108607;1275;25408;-78
2023/08/14 09:45:49;;;;;;;4.70;2.80;;;;;;;29.87;43.54;97153.06;108572;1275;23022;-77
2023/08/14 09:48:21;;;;;;;2.50;2.20;;;;;;;29.75;42.91;97151.27;108602;1275;23068;-77
2023/08/14 09:50:55;;;;;;;3.10;2.30;;;;;;;29.73;43.39;97153.22;108595;1269;25322;-78
2023/08/14 09:53:27;;;;;;;2.80;2.50;;;;;;;29.83;43.57;97158.83;108539;1275;22510;-78
2023/08/14 09:56:01;;;;;;;3.00;2.40;;;;;;;29.92;43.01;97155.46;108610;1274;23491;-78
2023/08/14 09:58:33;;;;;;;3.30;2.30;;;;;;;29.96;42.47;97156.24;108510;1275;22522;-76
2023/08/14 10:01:06;;;;;;;5.10;2.20;;;;;;;29.95;41.97;97154.29;108407;1274;22998;-76
2023/08/14 10:03:43;;;;;;;3.70;2.50;;;;;;;29.79;42.11;97153.13;108537;1272;23854;-79
2023/08/14 10:06:26;;;;;;;4.60;2.70;;;;;;;29.77;42.13;97153.68;108599;1274;22529;-78
2023/08/14 10:09:02;;;;;;;3.80;2.60;;;;;;;29.82;42.84;97152.19;108578;1268;22536;-78
2023/08/14 10:11:38;;;;;;;3.30;2.50;;;;;;;29.91;42.67;97153.20;108480;1268;25227;-78
2023/08/14 10:14:11;;;;;;;5.60;2.50;;;;;;;29.89;41.92;97149.15;108546;1275;22520;-79
2023/08/14 10:16:46;;;;;;;7.30;2.60;;;;;;;29.95;43.11;97149.68;108270;1269;22559;-78
2023/08/14 10:19:25;;;;;;;5.10;2.80;;;;;;;30.02;43.79;97142.19;108461;1275;22568;-78
2023/08/14 10:21:58;;;;;;;2.90;2.50;;;;;;;30.06;43.24;97143.21;108481;1274;22540;-75
2023/08/14 10:24:29;;;;;;;3.30;2.60;;;;;;;29.81;42.33;97139.00;108610;1275;22527;-77
2023/08/14 10:27:06;;;;;;;3.40;2.40;;;;;;;29.65;42.66;97139.86;108582;1272;22525;-77
2023/08/14 10:29:41;;;;;;;2.70;2.50;;;;;;;29.66;43.33;97136.58;108954;1272;25429;-78
2023/08/14 10:32:16;;;;;;;2.90;2.40;;;;;;;29.79;43.84;97135.56;108974;1268;22605;-78
2023/08/14 10:34:49;;;;;;;3.80;2.60;;;;;;;29.93;44.31;97138.13;108930;1269;22717;-79
2023/08/14 10:37:30;;;;;;;5.00;2.30;;;;;;;30.01;43.71;97138.13;108565;1269;24352;-78
2023/08/14 10:40:16;;;;;;;6.00;2.50;;;;;;;30.00;43.62;97136.95;108541;1268;22548;-78
2023/08/14 10:42:58;;;;;;;6.40;2.40;;;;;;;30.03;44.10;97138.91;108677;1275;22548;-81
2023/08/14 10:45:32;;;;;;;4.80;2.70;;;;;;;30.01;43.30;97135.31;108557;1275;23390;-81
2023/08/14 10:48:15;;;;;;;3.80;2.60;;;;;;;29.75;42.94;97132.83;108539;1275;22546;-80
2023/08/14 10:50:58;;;;;;;6.00;3.00;;;;;;;29.62;42.85;97127.68;108570;1275;22618;-79
2023/08/14 10:53:31;;;;;;;5.00;2.80;;;;;;;29.64;43.51;97127.13;108568;1275;22540;-79
2023/08/14 10:56:05;;;;;;;3.70;2.60;;;;;;;29.70;43.19;97125.40;108534;1275;22524;-78
2023/08/14 10:58:51;;;;;;;2.80;2.50;;;;;;;29.69;43.56;97123.52;108550;1275;22534;-78
2023/08/14 11:01:35;;;;;;;3.50;2.40;;;;;;;29.68;43.44;97120.80;108585;1275;22546;-79
2023/08/14 11:04:10;;;;;;;3.40;2.70;;;;;;;29.74;44.13;97119.80;108446;1269;22933;-79
2023/08/14 11:07:08;;;;;;;5.00;2.60;;;;;;;29.81;44.38;97115.48;108403;1276;23011;-78
2023/08/14 11:09:42;;;;;;;2.80;2.50;;;;;;;29.77;44.00;97116.20;109501;1276;22518;-78
2023/08/14 11:12:19;;;;;;;5.00;2.70;;;;;;;29.69;43.68;97116.59;108524;1269;24293;-78
2023/08/14 11:14:52;;;;;;;;;;;;;;;29.69;45.09;97116.27;108556;1276;22499;-78
2023/08/14 11:17:26;;;;;;;3.20;2.50;;;;;;;29.84;45.72;97114.55;108637;1268;23071;-78
2023/08/14 11:19:58;;;;;;;3.20;2.40;;;;;;;29.94;45.28;97109.06;108676;1269;22517;-77
2023/08/14 11:22:31;;;;;;;3.60;2.70;;;;;;;29.89;44.65;97111.65;108609;1275;22631;-77
2023/08/14 11:25:05;;;;;;;5.30;3.20;;;;;;;29.72;44.00;97109.70;108547;1270;22529;-77
2023/08/14 11:27:37;;;;;;;6.80;3.10;;;;;;;29.58;44.40;97105.98;108604;1268;22838;-76
2023/08/14 11:30:11;;;;;;;3.00;2.60;;;;;;;29.62;45.29;97108.33;108603;1271;24183;-76
2023/08/14 11:32:43;;;;;;;3.00;2.70;;;;;;;29.70;45.42;97108.30;108636;1269;22547;-75
2023/08/14 11:35:19;;;;;;;5.10;2.90;;;;;;;29.70;45.55;97109.71;108543;1275;22531;-76
2023/08/14 11:37:51;;;;;;;7.20;3.00;;;;;;;29.77;46.27;97108.85;108651;1274;25342;-76
2023/08/14 11:40:22;;;;;;;3.60;3.10;;;;;;;29.85;47.04;97111.59;108656;1274;22501;-76
2023/08/14 11:42:56;;;;;;;4.20;3.00;;;;;;;29.88;46.90;97108.38;108631;1275;22671;-77
2023/08/14 11:45:31;;;;;;;4.70;3.00;;;;;;;29.92;47.01;97109.85;108585;1272;24709;-78
2023/08/14 11:48:07;;;;;;;3.10;2.80;;;;;;;29.96;46.97;97108.05;108613;1275;22521;-78
2023/08/14 11:50:40;;;;;;;4.50;2.80;;;;;;;29.97;47.53;97106.16;108674;1272;22522;-78
2023/08/14 11:53:11;;;;;;;4.90;3.40;;;;;;;30.02;47.91;97106.72;108608;1274;22615;-78